sensor_id;sensor_type;location;lat;lon;timestamp;P1;durP1;ratioP1;P2;durP2;ratioP2
14007;SDS011;61651;45.508;12.232;2024-02-26T00:00:45;9.27;;;8.47;;
14007;SDS011;61651;45.508;12.232;2024-02-26T00:03:47;9.73;;;8.83;;
14007;SDS011;61651;45.508;12.232;2024-02-26T00:06:49;9.17;;;8.37;;
14007;SDS011;61651;45.508;12.232;2024-02-26T00:09:54;9.67;;;8.87;;
14007;SDS011;61651;45.508;12.232;2024-02-26T00:12:56;9.73;;;8.83;;
14007;SDS011;61651;45.508;12.232;2024-02-26T00:15:59;10.27;;;9.37;;
14007;SDS011;61651;45.508;12.232;2024-02-26T00:19:01;9.17;;;8.40;;
14007;SDS011;61651;45.508;12.232;2024-02-26T00:22:03;9.00;;;8.20;;
14007;SDS011;61651;45.508;12.232;2024-02-26T00:25:05;10.13;;;9.13;;
14007;SDS011;61651;45.508;12.232;2024-02-26T00:28:08;10.43;;;9.20;;
14007;SDS011;61651;45.508;12.232;2024-02-26T00:31:11;9.67;;;8.77;;
14007;SDS011;61651;45.508;12.232;2024-02-26T00:34:13;10.33;;;9.43;;
14007;SDS011;61651;45.508;12.232;2024-02-26T00:37:15;9.07;;;8.27;;
14007;SDS011;61651;45.508;12.232;2024-02-26T00:40:17;10.50;;;9.60;;
14007;SDS011;61651;45.508;12.232;2024-02-26T00:43:19;9.57;;;8.77;;
14007;SDS011;61651;45.508;12.232;2024-02-26T00:46:23;9.70;;;8.80;;
14007;SDS011;61651;45.508;12.232;2024-02-26T00:49:25;9.77;;;8.87;;
14007;SDS011;61651;45.508;12.232;2024-02-26T00:52:27;9.80;;;8.47;;
14007;SDS011;61651;45.508;12.232;2024-02-26T00:55:29;9.47;;;8.63;;
14007;SDS011;61651;45.508;12.232;2024-02-26T00:58:31;9.73;;;8.93;;
14007;SDS011;61651;45.508;12.232;2024-02-26T01:01:34;9.27;;;8.47;;
14007;SDS011;61651;45.508;12.232;2024-02-26T01:04:36;9.60;;;8.70;;
14007;SDS011;61651;45.508;12.232;2024-02-26T01:07:38;9.03;;;8.33;;
14007;SDS011;61651;45.508;12.232;2024-02-26T01:10:40;9.30;;;8.60;;
14007;SDS011;61651;45.508;12.232;2024-02-26T01:13:45;8.97;;;8.27;;
14007;SDS011;61651;45.508;12.232;2024-02-26T01:16:48;9.30;;;8.40;;
14007;SDS011;61651;45.508;12.232;2024-02-26T01:19:50;9.13;;;8.33;;
14007;SDS011;61651;45.508;12.232;2024-02-26T01:22:53;9.57;;;8.67;;
14007;SDS011;61651;45.508;12.232;2024-02-26T01:25:55;8.70;;;8.00;;
14007;SDS011;61651;45.508;12.232;2024-02-26T01:28:57;9.13;;;8.33;;
14007;SDS011;61651;45.508;12.232;2024-02-26T01:32:01;9.80;;;8.90;;
14007;SDS011;61651;45.508;12.232;2024-02-26T01:35:05;9.17;;;8.37;;
14007;SDS011;61651;45.508;12.232;2024-02-26T01:38:10;9.17;;;8.37;;
14007;SDS011;61651;45.508;12.232;2024-02-26T01:41:13;10.33;;;9.23;;
14007;SDS011;61651;45.508;12.232;2024-02-26T01:44:15;10.07;;;9.07;;
14007;SDS011;61651;45.508;12.232;2024-02-26T01:47:18;9.60;;;8.80;;
14007;SDS011;61651;45.508;12.232;2024-02-26T01:50:20;9.60;;;8.73;;
14007;SDS011;61651;45.508;12.232;2024-02-26T01:53:23;9.60;;;8.60;;
14007;SDS011;61651;45.508;12.232;2024-02-26T01:56:25;10.03;;;9.13;;
14007;SDS011;61651;45.508;12.232;2024-02-26T01:59:30;9.67;;;8.57;;
14007;SDS011;61651;45.508;12.232;2024-02-26T02:02:34;8.80;;;8.10;;
14007;SDS011;61651;45.508;12.232;2024-02-26T02:05:36;9.37;;;8.57;;
14007;SDS011;61651;45.508;12.232;2024-02-26T02:08:41;8.67;;;7.97;;
14007;SDS011;61651;45.508;12.232;2024-02-26T02:11:44;9.60;;;8.70;;
14007;SDS011;61651;45.508;12.232;2024-02-26T02:14:46;10.13;;;9.23;;
14007;SDS011;61651;45.508;12.232;2024-02-26T02:17:49;10.17;;;9.23;;
14007;SDS011;61651;45.508;12.232;2024-02-26T02:20:54;10.63;;;9.63;;
14007;SDS011;61651;45.508;12.232;2024-02-26T02:23:59;10.83;;;9.90;;
14007;SDS011;61651;45.508;12.232;2024-02-26T02:27:01;10.70;;;9.77;;
14007;SDS011;61651;45.508;12.232;2024-02-26T02:30:05;10.33;;;9.33;;
14007;SDS011;61651;45.508;12.232;2024-02-26T02:33:08;9.80;;;8.90;;
14007;SDS011;61651;45.508;12.232;2024-02-26T02:36:13;10.23;;;9.33;;
14007;SDS011;61651;45.508;12.232;2024-02-26T02:39:15;11.33;;;10.33;;
14007;SDS011;61651;45.508;12.232;2024-02-26T02:42:17;10.70;;;9.70;;
14007;SDS011;61651;45.508;12.232;2024-02-26T02:45:19;11.10;;;10.00;;
14007;SDS011;61651;45.508;12.232;2024-02-26T02:48:21;11.47;;;10.47;;
14007;SDS011;61651;45.508;12.232;2024-02-26T02:51:24;11.87;;;10.83;;
14007;SDS011;61651;45.508;12.232;2024-02-26T02:54:26;11.23;;;10.33;;
14007;SDS011;61651;45.508;12.232;2024-02-26T02:57:28;11.47;;;10.50;;
14007;SDS011;61651;45.508;12.232;2024-02-26T03:00:31;11.03;;;10.13;;
14007;SDS011;61651;45.508;12.232;2024-02-26T03:03:33;12.03;;;10.93;;
14007;SDS011;61651;45.508;12.232;2024-02-26T03:06:38;10.87;;;9.87;;
14007;SDS011;61651;45.508;12.232;2024-02-26T03:09:40;11.67;;;10.57;;
14007;SDS011;61651;45.508;12.232;2024-02-26T03:12:42;10.63;;;9.57;;
14007;SDS011;61651;45.508;12.232;2024-02-26T03:15:44;10.30;;;9.50;;
14007;SDS011;61651;45.508;12.232;2024-02-26T03:18:46;11.27;;;10.27;;
14007;SDS011;61651;45.508;12.232;2024-02-26T03:21:49;10.93;;;9.83;;
14007;SDS011;61651;45.508;12.232;2024-02-26T03:24:51;11.57;;;10.57;;
14007;SDS011;61651;45.508;12.232;2024-02-26T03:27:53;10.70;;;9.90;;
14007;SDS011;61651;45.508;12.232;2024-02-26T03:30:55;10.73;;;9.83;;
14007;SDS011;61651;45.508;12.232;2024-02-26T03:33:57;11.80;;;10.80;;
14007;SDS011;61651;45.508;12.232;2024-02-26T03:37:01;11.43;;;10.33;;
14007;SDS011;61651;45.508;12.232;2024-02-26T03:40:03;10.97;;;9.87;;
14007;SDS011;61651;45.508;12.232;2024-02-26T03:43:06;10.60;;;9.60;;
14007;SDS011;61651;45.508;12.232;2024-02-26T03:46:08;10.83;;;9.90;;
14007;SDS011;61651;45.508;12.232;2024-02-26T03:49:12;11.40;;;10.40;;
14007;SDS011;61651;45.508;12.232;2024-02-26T03:52:16;11.33;;;10.40;;
14007;SDS011;61651;45.508;12.232;2024-02-26T03:55:18;10.67;;;9.87;;
14007;SDS011;61651;45.508;12.232;2024-02-26T03:58:24;10.53;;;9.63;;
14007;SDS011;61651;45.508;12.232;2024-02-26T04:01:26;10.10;;;9.30;;
14007;SDS011;61651;45.508;12.232;2024-02-26T04:04:28;10.33;;;9.43;;
14007;SDS011;61651;45.508;12.232;2024-02-26T04:07:32;10.20;;;9.30;;
14007;SDS011;61651;45.508;12.232;2024-02-26T04:10:34;10.37;;;9.23;;
14007;SDS011;61651;45.508;12.232;2024-02-26T04:13:38;10.73;;;9.73;;
14007;SDS011;61651;45.508;12.232;2024-02-26T04:16:40;11.23;;;10.20;;
14007;SDS011;61651;45.508;12.232;2024-02-26T04:19:42;10.50;;;9.37;;
14007;SDS011;61651;45.508;12.232;2024-02-26T04:22:45;13.80;;;9.33;;
14007;SDS011;61651;45.508;12.232;2024-02-26T04:25:47;9.77;;;8.87;;
14007;SDS011;61651;45.508;12.232;2024-02-26T04:28:49;10.80;;;9.30;;
14007;SDS011;61651;45.508;12.232;2024-02-26T04:31:51;10.87;;;9.77;;
14007;SDS011;61651;45.508;12.232;2024-02-26T04:34:53;9.63;;;8.80;;
14007;SDS011;61651;45.508;12.232;2024-02-26T04:37:57;9.83;;;8.83;;
14007;SDS011;61651;45.508;12.232;2024-02-26T04:40:59;9.67;;;8.77;;
14007;SDS011;61651;45.508;12.232;2024-02-26T04:44:01;10.27;;;8.97;;
14007;SDS011;61651;45.508;12.232;2024-02-26T04:47:03;10.30;;;9.10;;
14007;SDS011;61651;45.508;12.232;2024-02-26T04:50:05;10.73;;;9.63;;
14007;SDS011;61651;45.508;12.232;2024-02-26T04:53:09;10.17;;;9.20;;
14007;SDS011;61651;45.508;12.232;2024-02-26T04:56:11;10.03;;;9.17;;
14007;SDS011;61651;45.508;12.232;2024-02-26T04:59:13;9.80;;;8.80;;
14007;SDS011;61651;45.508;12.232;2024-02-26T05:02:15;8.97;;;8.17;;
14007;SDS011;61651;45.508;12.232;2024-02-26T05:05:17;9.87;;;8.97;;
14007;SDS011;61651;45.508;12.232;2024-02-26T05:08:21;10.27;;;9.27;;
14007;SDS011;61651;45.508;12.232;2024-02-26T05:11:23;12.20;;;9.30;;
14007;SDS011;61651;45.508;12.232;2024-02-26T05:14:25;11.57;;;9.17;;
14007;SDS011;61651;45.508;12.232;2024-02-26T05:17:27;11.33;;;9.70;;
14007;SDS011;61651;45.508;12.232;2024-02-26T05:20:29;10.20;;;9.23;;
14007;SDS011;61651;45.508;12.232;2024-02-26T05:23:32;12.27;;;9.90;;
14007;SDS011;61651;45.508;12.232;2024-02-26T05:26:34;11.70;;;10.43;;
14007;SDS011;61651;45.508;12.232;2024-02-26T05:29:36;10.77;;;9.47;;
14007;SDS011;61651;45.508;12.232;2024-02-26T05:32:38;11.30;;;9.73;;
14007;SDS011;61651;45.508;12.232;2024-02-26T05:35:40;10.70;;;9.70;;
14007;SDS011;61651;45.508;12.232;2024-02-26T05:38:44;11.00;;;10.00;;
14007;SDS011;61651;45.508;12.232;2024-02-26T05:41:47;11.73;;;10.17;;
14007;SDS011;61651;45.508;12.232;2024-02-26T05:44:49;11.40;;;10.13;;
14007;SDS011;61651;45.508;12.232;2024-02-26T05:47:51;10.77;;;9.77;;
14007;SDS011;61651;45.508;12.232;2024-02-26T05:50:53;9.47;;;8.67;;
14007;SDS011;61651;45.508;12.232;2024-02-26T05:53:57;10.93;;;9.83;;
14007;SDS011;61651;45.508;12.232;2024-02-26T05:56:59;9.40;;;8.60;;
14007;SDS011;61651;45.508;12.232;2024-02-26T06:00:01;9.77;;;8.87;;
14007;SDS011;61651;45.508;12.232;2024-02-26T06:03:04;10.37;;;9.47;;
14007;SDS011;61651;45.508;12.232;2024-02-26T06:06:06;9.47;;;8.67;;
14007;SDS011;61651;45.508;12.232;2024-02-26T06:09:10;9.43;;;8.53;;
14007;SDS011;61651;45.508;12.232;2024-02-26T06:12:12;8.90;;;8.03;;
14007;SDS011;61651;45.508;12.232;2024-02-26T06:15:14;9.67;;;8.80;;
14007;SDS011;61651;45.508;12.232;2024-02-26T06:18:16;9.63;;;8.83;;
14007;SDS011;61651;45.508;12.232;2024-02-26T06:21:18;9.90;;;8.90;;
14007;SDS011;61651;45.508;12.232;2024-02-26T06:24:21;10.47;;;9.30;;
14007;SDS011;61651;45.508;12.232;2024-02-26T06:27:23;10.47;;;9.57;;
14007;SDS011;61651;45.508;12.232;2024-02-26T06:30:25;9.43;;;8.63;;
14007;SDS011;61651;45.508;12.232;2024-02-26T06:33:27;10.50;;;9.60;;
14007;SDS011;61651;45.508;12.232;2024-02-26T06:36:29;9.30;;;8.50;;
14007;SDS011;61651;45.508;12.232;2024-02-26T06:39:34;10.87;;;9.80;;
14007;SDS011;61651;45.508;12.232;2024-02-26T06:42:36;10.37;;;9.40;;
14007;SDS011;61651;45.508;12.232;2024-02-26T06:45:38;10.33;;;9.33;;
14007;SDS011;61651;45.508;12.232;2024-02-26T06:48:40;10.47;;;9.60;;
14007;SDS011;61651;45.508;12.232;2024-02-26T06:51:42;10.63;;;9.83;;
14007;SDS011;61651;45.508;12.232;2024-02-26T06:54:46;10.10;;;9.10;;
14007;SDS011;61651;45.508;12.232;2024-02-26T06:57:48;10.90;;;9.90;;
14007;SDS011;61651;45.508;12.232;2024-02-26T07:00:50;11.27;;;10.17;;
14007;SDS011;61651;45.508;12.232;2024-02-26T07:03:52;10.10;;;9.10;;
14007;SDS011;61651;45.508;12.232;2024-02-26T07:06:54;11.00;;;9.90;;
14007;SDS011;61651;45.508;12.232;2024-02-26T07:09:58;10.40;;;9.50;;
14007;SDS011;61651;45.508;12.232;2024-02-26T07:13:05;9.90;;;9.00;;
14007;SDS011;61651;45.508;12.232;2024-02-26T07:16:08;10.03;;;8.90;;
14007;SDS011;61651;45.508;12.232;2024-02-26T07:19:11;9.33;;;8.27;;
14007;SDS011;61651;45.508;12.232;2024-02-26T07:22:13;10.20;;;9.40;;
14007;SDS011;61651;45.508;12.232;2024-02-26T07:25:17;10.77;;;9.83;;
14007;SDS011;61651;45.508;12.232;2024-02-26T07:28:19;10.03;;;9.13;;
14007;SDS011;61651;45.508;12.232;2024-02-26T07:31:21;10.57;;;9.50;;
14007;SDS011;61651;45.508;12.232;2024-02-26T07:34:23;10.83;;;9.40;;
14007;SDS011;61651;45.508;12.232;2024-02-26T07:37:29;11.23;;;10.13;;
14007;SDS011;61651;45.508;12.232;2024-02-26T07:40:32;11.40;;;9.67;;
14007;SDS011;61651;45.508;12.232;2024-02-26T07:43:34;12.13;;;10.83;;
14007;SDS011;61651;45.508;12.232;2024-02-26T07:46:36;13.80;;;11.53;;
14007;SDS011;61651;45.508;12.232;2024-02-26T07:49:39;14.10;;;11.53;;
14007;SDS011;61651;45.508;12.232;2024-02-26T07:52:41;11.57;;;10.17;;
14007;SDS011;61651;45.508;12.232;2024-02-26T07:55:44;12.40;;;10.63;;
14007;SDS011;61651;45.508;12.232;2024-02-26T07:58:46;15.27;;;10.73;;
14007;SDS011;61651;45.508;12.232;2024-02-26T08:01:49;13.70;;;10.40;;
14007;SDS011;61651;45.508;12.232;2024-02-26T08:04:52;11.17;;;9.63;;
14007;SDS011;61651;45.508;12.232;2024-02-26T08:07:54;14.00;;;11.10;;
14007;SDS011;61651;45.508;12.232;2024-02-26T08:10:57;12.93;;;11.40;;
14007;SDS011;61651;45.508;12.232;2024-02-26T08:13:59;14.63;;;11.97;;
14007;SDS011;61651;45.508;12.232;2024-02-26T08:17:01;15.73;;;11.60;;
14007;SDS011;61651;45.508;12.232;2024-02-26T08:20:04;15.77;;;11.23;;
14007;SDS011;61651;45.508;12.232;2024-02-26T08:23:06;13.93;;;11.43;;
14007;SDS011;61651;45.508;12.232;2024-02-26T08:26:10;12.27;;;10.60;;
14007;SDS011;61651;45.508;12.232;2024-02-26T08:29:12;12.00;;;10.43;;
14007;SDS011;61651;45.508;12.232;2024-02-26T08:32:14;11.33;;;10.13;;
14007;SDS011;61651;45.508;12.232;2024-02-26T08:35:16;11.57;;;10.30;;
14007;SDS011;61651;45.508;12.232;2024-02-26T08:38:19;11.53;;;10.33;;
14007;SDS011;61651;45.508;12.232;2024-02-26T08:41:22;12.40;;;10.90;;
14007;SDS011;61651;45.508;12.232;2024-02-26T08:44:24;12.13;;;9.97;;
14007;SDS011;61651;45.508;12.232;2024-02-26T08:47:26;12.90;;;10.33;;
14007;SDS011;61651;45.508;12.232;2024-02-26T08:50:29;12.03;;;10.70;;
14007;SDS011;61651;45.508;12.232;2024-02-26T08:53:31;14.93;;;11.47;;
14007;SDS011;61651;45.508;12.232;2024-02-26T08:56:34;13.70;;;11.23;;
14007;SDS011;61651;45.508;12.232;2024-02-26T08:59:36;15.70;;;11.77;;
14007;SDS011;61651;45.508;12.232;2024-02-26T09:02:38;15.63;;;11.90;;
14007;SDS011;61651;45.508;12.232;2024-02-26T09:05:40;14.87;;;11.90;;
14007;SDS011;61651;45.508;12.232;2024-02-26T09:08:42;13.87;;;11.57;;
14007;SDS011;61651;45.508;12.232;2024-02-26T09:11:46;16.20;;;11.83;;
14007;SDS011;61651;45.508;12.232;2024-02-26T09:14:48;12.00;;;10.70;;
14007;SDS011;61651;45.508;12.232;2024-02-26T09:17:50;14.27;;;11.17;;
14007;SDS011;61651;45.508;12.232;2024-02-26T09:20:52;13.50;;;12.00;;
14007;SDS011;61651;45.508;12.232;2024-02-26T09:23:54;13.40;;;10.63;;
14007;SDS011;61651;45.508;12.232;2024-02-26T09:26:58;14.13;;;10.83;;
14007;SDS011;61651;45.508;12.232;2024-02-26T09:30:00;12.67;;;10.43;;
14007;SDS011;61651;45.508;12.232;2024-02-26T09:33:02;18.10;;;11.40;;
14007;SDS011;61651;45.508;12.232;2024-02-26T09:36:04;13.13;;;10.57;;
14007;SDS011;61651;45.508;12.232;2024-02-26T09:39:07;13.40;;;10.40;;
14007;SDS011;61651;45.508;12.232;2024-02-26T09:42:13;14.03;;;9.70;;
14007;SDS011;61651;45.508;12.232;2024-02-26T09:45:17;15.30;;;10.23;;
14007;SDS011;61651;45.508;12.232;2024-02-26T09:48:20;12.60;;;10.23;;
14007;SDS011;61651;45.508;12.232;2024-02-26T09:51:24;17.40;;;10.77;;
14007;SDS011;61651;45.508;12.232;2024-02-26T09:54:27;12.10;;;9.20;;
14007;SDS011;61651;45.508;12.232;2024-02-26T09:57:32;13.77;;;9.90;;
14007;SDS011;61651;45.508;12.232;2024-02-26T10:00:36;12.43;;;10.20;;
14007;SDS011;61651;45.508;12.232;2024-02-26T10:03:40;18.50;;;11.33;;
14007;SDS011;61651;45.508;12.232;2024-02-26T10:06:44;12.77;;;10.20;;
14007;SDS011;61651;45.508;12.232;2024-02-26T10:09:48;12.83;;;10.20;;
14007;SDS011;61651;45.508;12.232;2024-02-26T10:12:51;14.48;;;9.85;;
14007;SDS011;61651;45.508;12.232;2024-02-26T10:15:53;14.43;;;10.77;;
14007;SDS011;61651;45.508;12.232;2024-02-26T10:18:55;16.90;;;11.83;;
14007;SDS011;61651;45.508;12.232;2024-02-26T10:21:57;13.40;;;10.33;;
14007;SDS011;61651;45.508;12.232;2024-02-26T10:25:00;14.33;;;11.27;;
14007;SDS011;61651;45.508;12.232;2024-02-26T10:28:05;15.87;;;10.77;;
14007;SDS011;61651;45.508;12.232;2024-02-26T10:31:08;16.40;;;11.00;;
14007;SDS011;61651;45.508;12.232;2024-02-26T10:34:11;13.50;;;10.80;;
14007;SDS011;61651;45.508;12.232;2024-02-26T10:37:15;16.00;;;11.15;;
14007;SDS011;61651;45.508;12.232;2024-02-26T10:40:18;15.75;;;11.63;;
14007;SDS011;61651;45.508;12.232;2024-02-26T10:43:22;16.77;;;11.98;;
14007;SDS011;61651;45.508;12.232;2024-02-26T10:46:25;16.00;;;10.60;;
14007;SDS011;61651;45.508;12.232;2024-02-26T10:49:27;16.17;;;11.82;;
14007;SDS011;61651;45.508;12.232;2024-02-26T10:52:30;16.85;;;11.02;;
14007;SDS011;61651;45.508;12.232;2024-02-26T10:55:33;14.15;;;12.18;;
14007;SDS011;61651;45.508;12.232;2024-02-26T10:58:38;14.32;;;9.98;;
14007;SDS011;61651;45.508;12.232;2024-02-26T11:01:42;15.35;;;10.27;;
14007;SDS011;61651;45.508;12.232;2024-02-26T11:04:46;13.18;;;9.82;;
14007;SDS011;61651;45.508;12.232;2024-02-26T11:07:50;12.80;;;10.43;;
14007;SDS011;61651;45.508;12.232;2024-02-26T11:10:53;13.68;;;10.75;;
14007;SDS011;61651;45.508;12.232;2024-02-26T11:13:57;14.32;;;9.82;;
14007;SDS011;61651;45.508;12.232;2024-02-26T11:17:02;13.50;;;9.68;;
14007;SDS011;61651;45.508;12.232;2024-02-26T11:20:04;11.88;;;8.85;;
14007;SDS011;61651;45.508;12.232;2024-02-26T11:23:11;10.88;;;8.07;;
14007;SDS011;61651;45.508;12.232;2024-02-26T11:26:13;9.98;;;8.48;;
14007;SDS011;61651;45.508;12.232;2024-02-26T11:29:19;13.10;;;8.05;;
14007;SDS011;61651;45.508;12.232;2024-02-26T11:32:23;16.20;;;8.27;;
14007;SDS011;61651;45.508;12.232;2024-02-26T11:35:26;9.85;;;7.72;;
14007;SDS011;61651;45.508;12.232;2024-02-26T11:38:29;10.45;;;8.00;;
14007;SDS011;61651;45.508;12.232;2024-02-26T11:41:31;10.10;;;7.35;;
14007;SDS011;61651;45.508;12.232;2024-02-26T11:44:35;12.05;;;8.75;;
14007;SDS011;61651;45.508;12.232;2024-02-26T11:47:37;12.20;;;7.95;;
14007;SDS011;61651;45.508;12.232;2024-02-26T11:50:40;12.27;;;7.50;;
14007;SDS011;61651;45.508;12.232;2024-02-26T11:53:45;8.65;;;7.50;;
14007;SDS011;61651;45.508;12.232;2024-02-26T11:56:50;8.50;;;6.53;;
14007;SDS011;61651;45.508;12.232;2024-02-26T11:59:53;10.35;;;6.38;;
14007;SDS011;61651;45.508;12.232;2024-02-26T12:02:56;11.40;;;6.88;;
14007;SDS011;61651;45.508;12.232;2024-02-26T12:06:01;10.25;;;6.47;;
14007;SDS011;61651;45.508;12.232;2024-02-26T12:09:03;8.07;;;5.63;;
14007;SDS011;61651;45.508;12.232;2024-02-26T12:12:06;9.07;;;5.55;;
14007;SDS011;61651;45.508;12.232;2024-02-26T12:15:11;8.98;;;6.20;;
14007;SDS011;61651;45.508;12.232;2024-02-26T12:18:15;10.45;;;7.22;;
14007;SDS011;61651;45.508;12.232;2024-02-26T12:21:19;7.43;;;6.18;;
14007;SDS011;61651;45.508;12.232;2024-02-26T12:24:21;8.73;;;6.28;;
14007;SDS011;61651;45.508;12.232;2024-02-26T12:27:23;10.55;;;6.35;;
14007;SDS011;61651;45.508;12.232;2024-02-26T12:30:27;10.80;;;6.93;;
14007;SDS011;61651;45.508;12.232;2024-02-26T12:33:31;10.20;;;6.93;;
14007;SDS011;61651;45.508;12.232;2024-02-26T12:36:34;10.82;;;6.28;;
14007;SDS011;61651;45.508;12.232;2024-02-26T12:39:36;12.13;;;6.43;;
14007;SDS011;61651;45.508;12.232;2024-02-26T12:42:39;10.85;;;7.03;;
14007;SDS011;61651;45.508;12.232;2024-02-26T12:45:43;14.85;;;8.15;;
14007;SDS011;61651;45.508;12.232;2024-02-26T12:48:46;12.05;;;7.65;;
14007;SDS011;61651;45.508;12.232;2024-02-26T12:51:48;11.07;;;7.65;;
14007;SDS011;61651;45.508;12.232;2024-02-26T12:54:52;13.15;;;8.25;;
14007;SDS011;61651;45.508;12.232;2024-02-26T12:57:54;13.82;;;7.78;;
14007;SDS011;61651;45.508;12.232;2024-02-26T13:00:58;10.90;;;6.97;;
14007;SDS011;61651;45.508;12.232;2024-02-26T13:04:00;9.10;;;7.18;;
14007;SDS011;61651;45.508;12.232;2024-02-26T13:07:06;7.93;;;6.07;;
14007;SDS011;61651;45.508;12.232;2024-02-26T13:10:08;9.82;;;6.55;;
14007;SDS011;61651;45.508;12.232;2024-02-26T13:13:14;9.70;;;6.47;;
14007;SDS011;61651;45.508;12.232;2024-02-26T13:16:19;8.27;;;6.47;;
14007;SDS011;61651;45.508;12.232;2024-02-26T13:19:24;13.30;;;6.72;;
14007;SDS011;61651;45.508;12.232;2024-02-26T13:22:27;10.45;;;7.05;;
14007;SDS011;61651;45.508;12.232;2024-02-26T13:25:33;9.68;;;6.72;;
14007;SDS011;61651;45.508;12.232;2024-02-26T13:28:39;9.20;;;6.60;;
14007;SDS011;61651;45.508;12.232;2024-02-26T13:31:42;11.00;;;6.68;;
14007;SDS011;61651;45.508;12.232;2024-02-26T13:34:44;9.05;;;7.47;;
14007;SDS011;61651;45.508;12.232;2024-02-26T13:37:46;10.27;;;7.07;;
14007;SDS011;61651;45.508;12.232;2024-02-26T13:40:48;9.77;;;6.97;;
14007;SDS011;61651;45.508;12.232;2024-02-26T13:43:51;7.53;;;6.53;;
14007;SDS011;61651;45.508;12.232;2024-02-26T13:46:55;9.80;;;6.70;;
14007;SDS011;61651;45.508;12.232;2024-02-26T13:49:57;7.20;;;6.38;;
14007;SDS011;61651;45.508;12.232;2024-02-26T13:52:59;7.97;;;6.07;;
14007;SDS011;61651;45.508;12.232;2024-02-26T13:56:01;9.38;;;7.00;;
14007;SDS011;61651;45.508;12.232;2024-02-26T13:59:05;8.23;;;6.53;;
14007;SDS011;61651;45.508;12.232;2024-02-26T14:02:09;7.43;;;6.70;;
14007;SDS011;61651;45.508;12.232;2024-02-26T14:05:11;7.78;;;6.72;;
14007;SDS011;61651;45.508;12.232;2024-02-26T14:08:14;10.70;;;7.47;;
14007;SDS011;61651;45.508;12.232;2024-02-26T14:11:16;8.73;;;6.82;;
14007;SDS011;61651;45.508;12.232;2024-02-26T14:14:18;9.05;;;6.80;;
14007;SDS011;61651;45.508;12.232;2024-02-26T14:17:21;8.07;;;7.15;;
14007;SDS011;61651;45.508;12.232;2024-02-26T14:20:23;8.60;;;6.97;;
14007;SDS011;61651;45.508;12.232;2024-02-26T14:23:26;9.13;;;6.47;;
14007;SDS011;61651;45.508;12.232;2024-02-26T14:26:29;8.38;;;6.60;;
14007;SDS011;61651;45.508;12.232;2024-02-26T14:29:31;8.65;;;7.32;;
14007;SDS011;61651;45.508;12.232;2024-02-26T14:32:34;7.68;;;6.15;;
14007;SDS011;61651;45.508;12.232;2024-02-26T14:35:37;9.48;;;6.53;;
14007;SDS011;61651;45.508;12.232;2024-02-26T14:38:39;7.30;;;6.35;;
14007;SDS011;61651;45.508;12.232;2024-02-26T14:41:42;8.63;;;6.50;;
14007;SDS011;61651;45.508;12.232;2024-02-26T14:44:44;9.27;;;6.22;;
14007;SDS011;61651;45.508;12.232;2024-02-26T14:47:49;8.02;;;6.20;;
14007;SDS011;61651;45.508;12.232;2024-02-26T14:50:51;6.30;;;5.68;;
14007;SDS011;61651;45.508;12.232;2024-02-26T14:53:53;7.45;;;5.70;;
14007;SDS011;61651;45.508;12.232;2024-02-26T14:56:54;6.90;;;6.28;;
14007;SDS011;61651;45.508;12.232;2024-02-26T14:59:56;8.80;;;5.72;;
14007;SDS011;61651;45.508;12.232;2024-02-26T15:03:00;8.82;;;6.68;;
14007;SDS011;61651;45.508;12.232;2024-02-26T15:06:02;10.55;;;6.95;;
14007;SDS011;61651;45.508;12.232;2024-02-26T15:09:05;7.38;;;6.55;;
14007;SDS011;61651;45.508;12.232;2024-02-26T15:12:07;8.73;;;6.03;;
14007;SDS011;61651;45.508;12.232;2024-02-26T15:15:10;7.53;;;6.78;;
14007;SDS011;61651;45.508;12.232;2024-02-26T15:18:13;10.10;;;6.95;;
14007;SDS011;61651;45.508;12.232;2024-02-26T15:21:16;9.85;;;6.63;;
14007;SDS011;61651;45.508;12.232;2024-02-26T15:24:18;9.05;;;6.82;;
14007;SDS011;61651;45.508;12.232;2024-02-26T15:27:20;9.40;;;6.88;;
14007;SDS011;61651;45.508;12.232;2024-02-26T15:30:22;7.55;;;6.95;;
14007;SDS011;61651;45.508;12.232;2024-02-26T15:33:26;9.88;;;7.53;;
14007;SDS011;61651;45.508;12.232;2024-02-26T15:36:28;10.20;;;7.70;;
14007;SDS011;61651;45.508;12.232;2024-02-26T15:39:30;9.32;;;7.18;;
14007;SDS011;61651;45.508;12.232;2024-02-26T15:42:33;12.50;;;7.63;;
14007;SDS011;61651;45.508;12.232;2024-02-26T15:45:35;10.30;;;8.40;;
14007;SDS011;61651;45.508;12.232;2024-02-26T15:48:38;9.32;;;8.43;;
14007;SDS011;61651;45.508;12.232;2024-02-26T15:51:40;10.05;;;8.60;;
14007;SDS011;61651;45.508;12.232;2024-02-26T15:54:42;12.73;;;9.82;;
14007;SDS011;61651;45.508;12.232;2024-02-26T15:57:44;9.45;;;8.45;;
14007;SDS011;61651;45.508;12.232;2024-02-26T16:00:46;13.77;;;8.77;;
14007;SDS011;61651;45.508;12.232;2024-02-26T16:03:50;8.02;;;6.95;;
14007;SDS011;61651;45.508;12.232;2024-02-26T16:06:54;6.82;;;6.10;;
14007;SDS011;61651;45.508;12.232;2024-02-26T16:09:59;9.10;;;6.78;;
14007;SDS011;61651;45.508;12.232;2024-02-26T16:13:03;10.30;;;7.18;;
14007;SDS011;61651;45.508;12.232;2024-02-26T16:16:07;7.47;;;6.40;;
14007;SDS011;61651;45.508;12.232;2024-02-26T16:19:19;7.55;;;6.05;;
14007;SDS011;61651;45.508;12.232;2024-02-26T16:22:23;10.30;;;7.00;;
14007;SDS011;61651;45.508;12.232;2024-02-26T16:25:25;8.35;;;7.20;;
14007;SDS011;61651;45.508;12.232;2024-02-26T16:28:27;9.63;;;7.57;;
14007;SDS011;61651;45.508;12.232;2024-02-26T16:31:29;9.85;;;6.60;;
14007;SDS011;61651;45.508;12.232;2024-02-26T16:34:33;8.97;;;6.47;;
14007;SDS011;61651;45.508;12.232;2024-02-26T16:37:36;9.20;;;6.13;;
14007;SDS011;61651;45.508;12.232;2024-02-26T16:40:38;8.95;;;6.10;;
14007;SDS011;61651;45.508;12.232;2024-02-26T16:43:42;11.45;;;5.50;;
14007;SDS011;61651;45.508;12.232;2024-02-26T16:46:43;7.22;;;5.00;;
14007;SDS011;61651;45.508;12.232;2024-02-26T16:49:47;8.35;;;5.05;;
14007;SDS011;61651;45.508;12.232;2024-02-26T16:52:49;5.17;;;4.47;;
14007;SDS011;61651;45.508;12.232;2024-02-26T16:55:51;9.35;;;5.15;;
14007;SDS011;61651;45.508;12.232;2024-02-26T16:58:53;6.30;;;5.07;;
14007;SDS011;61651;45.508;12.232;2024-02-26T17:01:55;9.73;;;6.67;;
14007;SDS011;61651;45.508;12.232;2024-02-26T17:05:00;6.87;;;5.80;;
14007;SDS011;61651;45.508;12.232;2024-02-26T17:08:03;10.00;;;6.47;;
14007;SDS011;61651;45.508;12.232;2024-02-26T17:11:05;5.53;;;5.03;;
14007;SDS011;61651;45.508;12.232;2024-02-26T17:14:07;5.97;;;5.37;;
14007;SDS011;61651;45.508;12.232;2024-02-26T17:17:09;8.67;;;6.37;;
14007;SDS011;61651;45.508;12.232;2024-02-26T17:20:13;8.60;;;7.10;;
14007;SDS011;61651;45.508;12.232;2024-02-26T17:23:15;10.07;;;6.47;;
14007;SDS011;61651;45.508;12.232;2024-02-26T17:26:17;10.67;;;7.23;;
14007;SDS011;61651;45.508;12.232;2024-02-26T17:29:20;8.30;;;7.20;;
14007;SDS011;61651;45.508;12.232;2024-02-26T17:32:22;9.83;;;6.40;;
14007;SDS011;61651;45.508;12.232;2024-02-26T17:35:25;7.97;;;6.40;;
14007;SDS011;61651;45.508;12.232;2024-02-26T17:38:27;8.53;;;6.00;;
14007;SDS011;61651;45.508;12.232;2024-02-26T17:41:29;7.27;;;6.23;;
14007;SDS011;61651;45.508;12.232;2024-02-26T17:44:35;7.60;;;6.27;;
14007;SDS011;61651;45.508;12.232;2024-02-26T17:47:38;6.60;;;5.60;;
14007;SDS011;61651;45.508;12.232;2024-02-26T17:50:41;6.53;;;5.93;;